Portada
METAR-TAF:

METAR-TAF

Aeroports :

Bombai, Índia

latitud: 19-05-53N, longitud: 072-50-02E, altitud: 4 m

Observació

L'informe es va fer fa 7 hores i 30 minuts, a les 13:00 UTC
Vent 9 kt del Sud-Oest
Temperatura 30°C
Humitat 75%
Pressió 1003 hPa
Visibilitat: 4000 m
Núvols disperses a una alçada de 2000 ft
Núvols disperses a una alçada de 2500 ft
calitja

METAR: VAJJ 221300Z 22009KT 4000 HZ SCT020 SCT025 30/25 Q1003 NOSIG

Hora: 02:00 (20:30 UTC)


TAF: manca

Observacions i pronòstics meteorològics de més de 4000 aeroports (METAR i TAF).

Les estacions disponibles són els punts grocs i vermells al mapa.

Posi el ratolí al punt desitjat per veure el nom de l'estació.

Feu clic per veure les observacions i els pronòstics meteorològics.

Per canviar el mapa: feu clic els botons verds amb una creu de color negre per apropar; al botó verd amb un guió per allunyar la imatge; o en les fletxes verdes per a mapes adjacents.


METAR-TAF: